Time;durP1;ratioP1;P1;durP2;ratioP2;P2;SDS_P1;SDS_P2;PMS_P1;PMS_P2;Temp;Humidity;BMP_temperature;BMP_pressure;BME280_temperature;BME280_humidity;BME280_pressure;Samples;Min_cycle;Max_cycle;Signal;HPM_P1;HPM_P2
2023/04/15 00:01:51;;;;;;;2.00;1.90;;;7.10;97.30;;;;;;4995893;28;20201;-86
2023/04/15 00:04:16;;;;;;;3.03;2.83;;;7.10;97.30;;;;;;5017218;28;20472;-85
2023/04/15 00:06:42;;;;;;;3.03;2.77;;;7.00;97.30;;;;;;5000210;28;20427;-86
2023/04/15 00:09:07;;;;;;;1.87;1.77;;;7.00;97.30;;;;;;4994590;28;20637;-86
2023/04/15 00:11:33;;;;;;;2.10;1.80;;;7.00;97.30;;;;;;5016751;28;20192;-86
2023/04/15 00:13:59;;;;;;;1.97;1.80;;;7.00;97.30;;;;;;5010685;28;20258;-86
2023/04/15 00:16:27;;;;;;;2.80;2.60;;;7.00;97.30;;;;;;4999010;28;20238;-86
2023/04/15 00:18:52;;;;;;;3.63;2.20;;;7.00;97.30;;;;;;4999924;28;20427;-86
2023/04/15 00:21:18;;;;;;;2.30;1.97;;;6.90;97.30;;;;;;5013776;28;20467;-86
2023/04/15 00:23:44;;;;;;;2.40;2.20;;;6.90;97.30;;;;;;5019477;28;20574;-86
2023/04/15 00:26:09;;;;;;;3.23;2.07;;;6.90;97.30;;;;;;5006847;28;20181;-86
2023/04/15 00:28:35;;;;;;;4.10;2.50;;;6.90;97.30;;;;;;4999634;28;20187;-86
2023/04/15 00:31:00;;;;;;;1.80;1.70;;;6.90;97.30;;;;;;5018864;28;20177;-86
2023/04/15 00:33:25;;;;;;;2.73;2.53;;;6.90;97.30;;;;;;5005697;28;20215;-86
2023/04/15 00:35:52;;;;;;;4.33;2.37;;;6.90;97.30;;;;;;5017776;28;20181;-86
2023/04/15 00:38:18;;;;;;;1.30;1.20;;;6.90;97.30;;;;;;5002943;28;20192;-86
2023/04/15 00:40:44;;;;;;;1.57;1.40;;;6.90;97.30;;;;;;4996103;28;20428;-86
2023/04/15 00:43:09;;;;;;;23.27;2.23;;;6.90;97.30;;;;;;5018681;28;20197;-86
2023/04/15 00:45:35;;;;;;;3.23;1.73;;;6.90;97.30;;;;;;5003271;28;20717;-87
2023/04/15 00:48:01;;;;;;;2.57;2.37;;;6.90;97.30;;;;;;5004583;28;20180;-88
2023/04/15 00:50:26;;;;;;;1.93;1.80;;;6.80;97.30;;;;;;5018721;28;20177;-87
2023/04/15 00:52:52;;;;;;;1.60;1.50;;;6.90;97.30;;;;;;5009630;28;20271;-87
2023/04/15 00:55:18;;;;;;;4.27;1.53;;;6.80;97.30;;;;;;5005226;28;20436;-86
2023/04/15 00:57:43;;;;;;;3.10;1.70;;;6.80;97.30;;;;;;5015943;28;20604;-88
2023/04/15 01:00:10;;;;;;;3.53;2.57;;;6.80;97.30;;;;;;4999819;28;20428;-87
2023/04/15 01:02:39;;;;;;;2.00;1.90;;;6.80;97.30;;;;;;4995403;28;20200;-86
2023/04/15 01:05:20;;;;;;;2.90;2.70;;;6.80;97.30;;;;;;5003055;28;20424;-86
2023/04/15 01:07:48;;;;;;;2.37;2.17;;;6.80;97.30;;;;;;4999784;28;20999;-87
2023/04/15 01:10:13;;;;;;;10.53;2.67;;;6.80;97.30;;;;;;5003259;28;20428;-86
2023/04/15 01:12:39;;;;;;;1.50;1.40;;;6.80;97.30;;;;;;4991850;28;20428;-86
2023/04/15 01:15:09;;;;;;;5.13;2.40;;;6.80;97.30;;;;;;5011004;28;20193;-85
2023/04/15 01:17:38;;;;;;;3.33;2.57;;;6.80;97.30;;;;;;5003567;28;20177;-86
2023/04/15 01:20:10;;;;;;;5.83;4.10;;;6.80;97.30;;;;;;5003312;28;20415;-85
2023/04/15 01:22:39;;;;;;;4.07;2.80;;;6.80;97.30;;;;;;4995014;28;20464;-86
2023/04/15 01:25:10;;;;;;;5.77;4.13;;;6.80;97.30;;;;;;4995495;28;20432;-86
2023/04/15 01:27:39;;;;;;;3.63;2.80;;;6.80;97.30;;;;;;4995985;28;20424;-86
2023/04/15 01:30:10;;;;;;;3.77;3.57;;;6.80;97.30;;;;;;4994974;28;20487;-86
2023/04/15 01:32:38;;;;;;;2.77;2.40;;;6.80;97.30;;;;;;5011625;28;20455;-85
2023/04/15 01:35:04;;;;;;;3.53;3.33;;;6.80;97.30;;;;;;5002446;28;20421;-84
2023/04/15 01:37:31;;;;;;;1.37;1.30;;;6.80;97.30;;;;;;5005922;28;20420;-85
2023/04/15 01:39:58;;;;;;;4.97;2.60;;;6.80;97.30;;;;;;4994957;28;20196;-85
2023/04/15 01:42:31;;;;;;;3.60;2.40;;;6.80;97.30;;;;;;5012754;28;20885;-85
2023/04/15 01:45:00;;;;;;;5.43;2.30;;;6.70;97.30;;;;;;5002847;28;20445;-85
2023/04/15 01:47:33;;;;;;;3.47;2.37;;;6.70;97.30;;;;;;4997433;28;20784;-85
2023/04/15 01:50:00;;;;;;;2.97;2.07;;;6.70;97.30;;;;;;4997480;28;20959;-85
2023/04/15 01:52:31;;;;;;;3.70;2.60;;;6.70;97.30;;;;;;5001788;28;20434;-85
2023/04/15 01:55:00;;;;;;;3.90;3.40;;;6.70;97.30;;;;;;5002451;28;20452;-85
2023/04/15 01:57:28;;;;;;;11.70;2.50;;;6.70;97.30;;;;;;5002844;28;20425;-84
2023/04/15 01:59:53;;;;;;;1.67;1.57;;;6.70;97.30;;;;;;5002385;28;20420;-85
2023/04/15 02:02:19;;;;;;;1.50;1.40;;;6.70;97.30;;;;;;5002641;28;21103;-85
2023/04/15 02:04:50;;;;;;;6.07;2.43;;;6.70;97.30;;;;;;5002256;28;20757;-84
2023/04/15 02:07:16;;;;;;;1.77;1.70;;;6.70;97.30;;;;;;5003916;28;21009;-85
2023/04/15 02:09:42;;;;;;;1.97;1.87;;;6.70;97.30;;;;;;5002534;28;20419;-85
2023/04/15 02:12:08;;;;;;;2.80;1.83;;;6.70;97.30;;;;;;5002380;28;20432;-85
2023/04/15 02:14:36;;;;;;;2.60;1.90;;;6.70;97.30;;;;;;5001587;28;20540;-85
2023/04/15 02:17:06;;;;;;;4.00;2.70;;;6.70;97.30;;;;;;5001910;28;20944;-85
2023/04/15 02:19:32;;;;;;;2.53;2.33;;;6.70;97.30;;;;;;5001556;28;20944;-85
2023/04/15 02:22:01;;;;;;;1.93;1.80;;;6.80;97.30;;;;;;4993575;28;20462;-85
2023/04/15 02:24:30;;;;;;;1.27;1.17;;;6.70;97.30;;;;;;4996072;28;20960;-84
2023/04/15 02:26:56;;;;;;;1.47;1.43;;;6.70;97.30;;;;;;5010020;28;20451;-85
2023/04/15 02:29:22;;;;;;;7.80;3.83;;;6.70;97.30;;;;;;5001894;28;20507;-85
2023/04/15 02:31:48;;;;;;;1.50;1.40;;;6.70;97.30;;;;;;4993632;28;20188;-86
2023/04/15 02:34:21;;;;;;;2.57;1.57;;;6.70;97.30;;;;;;4993723;28;20215;-85
2023/04/15 02:36:53;;;;;;;2.27;2.10;;;6.70;97.30;;;;;;4993684;28;20424;-85
2023/04/15 02:39:19;;;;;;;1.30;1.20;;;6.70;97.30;;;;;;5001667;28;20436;-85
2023/04/15 02:41:50;;;;;;;2.03;1.57;;;6.70;97.30;;;;;;4992636;28;20982;-84
2023/04/15 02:44:19;;;;;;;4.03;2.40;;;6.70;97.30;;;;;;4993446;28;20479;-85
2023/04/15 02:46:51;;;;;;;1.63;1.53;;;6.60;97.30;;;;;;4990412;28;20488;-84
2023/04/15 02:49:17;;;;;;;2.00;1.20;;;6.60;97.30;;;;;;5002050;28;20462;-85
2023/04/15 02:51:50;;;;;;;4.00;2.23;;;6.60;97.30;;;;;;4993339;28;20424;-84
2023/04/15 02:54:19;;;;;;;2.30;2.10;;;6.60;97.30;;;;;;4989968;28;20743;-85
2023/04/15 02:56:45;;;;;;;3.67;2.67;;;6.60;97.30;;;;;;4993476;28;20780;-84
2023/04/15 02:59:12;;;;;;;11.53;2.50;;;6.60;97.30;;;;;;4989905;28;20505;-85
2023/04/15 03:01:40;;;;;;;2.20;1.90;;;6.60;97.30;;;;;;4995984;28;20204;-86
2023/04/15 03:04:08;;;;;;;2.60;2.20;;;6.70;97.30;;;;;;4999995;28;20471;-84
2023/04/15 03:06:34;;;;;;;2.40;1.97;;;6.60;97.30;;;;;;4990906;28;20424;-85
2023/04/15 03:09:00;;;;;;;1.70;1.60;;;6.60;97.30;;;;;;4991977;28;20790;-85
2023/04/15 03:11:27;;;;;;;2.23;2.03;;;6.60;97.30;;;;;;5004129;28;21125;-85
2023/04/15 03:13:53;;;;;;;1.63;1.40;;;6.60;97.30;;;;;;4992185;28;20459;-85
2023/04/15 03:16:18;;;;;;;8.13;3.97;;;6.60;97.30;;;;;;5009395;28;20424;-85
2023/04/15 03:18:44;;;;;;;3.03;2.03;;;6.70;97.30;;;;;;5008772;28;20267;-85
2023/04/15 03:21:09;;;;;;;3.00;1.70;;;6.70;97.30;;;;;;5008613;28;20228;-85
2023/04/15 03:23:35;;;;;;;4.00;3.77;;;6.70;97.30;;;;;;4992157;28;20693;-85
2023/04/15 03:26:04;;;;;;;2.67;2.47;;;6.70;97.30;;;;;;5016601;28;20173;-85
2023/04/15 03:28:30;;;;;;;2.10;1.60;;;6.70;97.30;;;;;;5015290;28;20646;-84
2023/04/15 03:30:56;;;;;;;2.40;2.20;;;6.70;97.30;;;;;;4984720;28;20491;-84
2023/04/15 03:33:21;;;;;;;1.63;1.53;;;6.70;97.30;;;;;;4992721;28;20428;-85
2023/04/15 03:35:50;;;;;;;6.47;2.50;;;6.70;97.30;;;;;;4992672;28;20181;-85
2023/04/15 03:38:19;;;;;;;2.37;2.20;;;6.70;97.30;;;;;;4984649;28;20209;-85
2023/04/15 03:40:47;;;;;;;2.47;2.33;;;6.70;97.30;;;;;;4993886;28;20423;-83
2023/04/15 03:43:20;;;;;;;2.03;1.77;;;6.70;97.30;;;;;;4995458;28;20525;-84
2023/04/15 03:45:49;;;;;;;2.10;1.97;;;6.70;97.30;;;;;;5004441;28;20468;-84
2023/04/15 03:48:19;;;;;;;2.30;2.13;;;6.70;97.30;;;;;;4996220;28;20838;-80
2023/04/15 03:50:47;;;;;;;1.63;1.53;;;6.70;97.30;;;;;;5000526;28;20481;-85
2023/04/15 03:53:13;;;;;;;1.80;1.70;;;6.70;97.30;;;;;;5019062;28;20436;-85
2023/04/15 03:55:39;;;;;;;1.57;1.53;;;6.70;97.30;;;;;;5009999;28;20501;-85
2023/04/15 03:58:04;;;;;;;2.10;1.37;;;6.70;97.30;;;;;;4994085;28;20523;-85
2023/04/15 04:00:30;;;;;;;1.63;1.30;;;6.70;97.30;;;;;;4993508;28;20650;-84
2023/04/15 04:02:55;;;;;;;2.80;2.60;;;6.70;97.30;;;;;;4995963;28;20248;-85
2023/04/15 04:05:21;;;;;;;1.53;1.37;;;6.70;97.30;;;;;;4998266;28;20551;-85
2023/04/15 04:07:46;;;;;;;3.23;2.70;;;6.70;97.30;;;;;;5003856;28;20690;-85
2023/04/15 04:10:12;;;;;;;1.23;1.20;;;6.70;97.30;;;;;;5005163;28;20189;-85
2023/04/15 04:12:40;;;;;;;3.80;2.20;;;6.70;97.30;;;;;;5001295;28;20208;-85
2023/04/15 04:15:09;;;;;;;1.80;1.70;;;6.70;97.30;;;;;;5004405;28;20185;-84
2023/04/15 04:17:43;;;;;;;1.60;1.53;;;6.80;97.30;;;;;;4996047;28;20967;-84
2023/04/15 04:20:11;;;;;;;1.77;1.47;;;6.80;97.30;;;;;;4996425;28;20435;-85
2023/04/15 04:22:40;;;;;;;1.10;1.00;;;6.80;97.30;;;;;;5012468;28;20538;-84
2023/04/15 04:25:10;;;;;;;2.30;2.10;;;6.80;97.30;;;;;;4996151;28;20420;-84
2023/04/15 04:27:38;;;;;;;1.90;1.30;;;6.80;97.30;;;;;;5004840;28;20458;-85
2023/04/15 04:30:07;;;;;;;3.90;1.37;;;6.80;97.30;;;;;;4996507;28;20431;-84
2023/04/15 04:32:32;;;;;;;3.90;1.40;;;6.80;97.30;;;;;;5012680;28;20507;-85
2023/04/15 04:35:01;;;;;;;2.43;2.23;;;6.80;97.30;;;;;;5000286;28;20526;-85
2023/04/15 04:37:43;;;;;;;1.67;1.57;;;6.80;97.30;;;;;;4997661;28;20280;-84
2023/04/15 04:40:09;;;;;;;2.60;2.33;;;6.80;97.30;;;;;;5006573;28;20469;-84
2023/04/15 04:42:40;;;;;;;2.57;1.50;;;6.80;97.30;;;;;;4995565;28;20471;-80
2023/04/15 04:45:09;;;;;;;2.50;2.07;;;6.80;97.30;;;;;;4990989;28;20793;-83
2023/04/15 04:47:40;;;;;;;2.30;1.60;;;6.80;97.30;;;;;;5010327;28;20455;-85
2023/04/15 04:50:12;;;;;;;1.50;1.40;;;6.80;97.30;;;;;;4997640;28;20792;-85
2023/04/15 04:52:40;;;;;;;1.60;1.50;;;6.80;97.30;;;;;;5020030;28;20523;-84
2023/04/15 04:55:08;;;;;;;2.97;2.20;;;6.80;97.30;;;;;;4995933;28;20424;-84
2023/04/15 04:57:41;;;;;;;1.00;0.90;;;6.80;97.30;;;;;;4996029;28;20424;-85
2023/04/15 05:00:07;;;;;;;1.40;1.33;;;6.80;97.30;;;;;;4989452;28;20822;-85
2023/04/15 05:02:38;;;;;;;2.10;1.93;;;6.80;97.30;;;;;;4997864;28;21031;-85
2023/04/15 05:05:10;;;;;;;3.73;3.53;;;6.80;97.30;;;;;;5001030;28;20463;-86
2023/04/15 05:07:38;;;;;;;2.50;1.97;;;6.80;97.30;;;;;;5006634;28;20513;-87
2023/04/15 05:10:07;;;;;;;3.10;2.87;;;6.80;97.30;;;;;;4991316;28;20420;-86
2023/04/15 05:12:41;;;;;;;1.20;1.13;;;6.80;97.30;;;;;;5009670;28;20425;-86
2023/04/15 05:15:10;;;;;;;1.37;1.27;;;6.90;97.30;;;;;;4987573;28;20427;-86
2023/04/15 05:17:37;;;;;;;2.73;1.70;;;6.90;97.30;;;;;;5007120;28;20415;-86
2023/04/15 05:20:06;;;;;;;3.50;1.57;;;6.90;97.30;;;;;;5003117;28;20427;-86
2023/04/15 05:22:31;;;;;;;2.40;2.20;;;6.90;97.30;;;;;;4998836;28;20539;-86
2023/04/15 05:24:57;;;;;;;3.00;2.80;;;6.90;97.30;;;;;;4986329;28;20574;-86
2023/04/15 05:27:23;;;;;;;7.27;2.60;;;6.90;97.30;;;;;;5008138;28;20191;-86
2023/04/15 05:29:51;;;;;;;1.63;1.53;;;6.90;97.30;;;;;;4994305;28;20667;-84
2023/04/15 05:32:28;;;;;;;3.80;2.10;;;6.90;97.30;;;;;;4994319;28;20409;-87
2023/04/15 05:35:02;;;;;;;1.37;1.27;;;6.90;97.30;;;;;;4993057;28;20439;-86
2023/04/15 05:37:30;;;;;;;1.77;1.77;;;6.90;97.30;;;;;;4994524;28;20431;-86
2023/04/15 05:40:03;;;;;;;1.53;1.43;;;6.90;97.30;;;;;;4999370;28;21131;-85
2023/04/15 05:42:33;;;;;;;2.63;2.47;;;6.90;97.30;;;;;;4995852;28;20466;-86
2023/04/15 05:44:59;;;;;;;2.63;2.43;;;6.90;97.30;;;;;;4994044;28;20440;-85
2023/04/15 05:47:32;;;;;;;2.87;2.67;;;6.90;97.30;;;;;;4999040;28;20789;-85
2023/04/15 05:50:01;;;;;;;2.73;2.20;;;7.00;97.30;;;;;;5002102;28;20176;-84
2023/04/15 05:52:26;;;;;;;4.33;2.43;;;7.00;97.30;;;;;;4996447;28;20420;-86
2023/04/15 05:54:52;;;;;;;3.17;2.97;;;7.00;97.30;;;;;;4989559;28;21145;-85
2023/04/15 05:57:17;;;;;;;3.30;1.37;;;7.00;97.30;;;;;;5000906;28;20189;-85
2023/04/15 05:59:43;;;;;;;7.17;2.90;;;7.00;97.30;;;;;;5017440;28;20224;-85
2023/04/15 06:02:09;;;;;;;1.97;1.60;;;7.00;97.30;;;;;;4993761;28;20296;-85
2023/04/15 06:04:35;;;;;;;2.40;2.20;;;7.00;97.30;;;;;;4998419;28;20463;-85
2023/04/15 06:07:01;;;;;;;1.30;1.20;;;7.00;97.30;;;;;;4999107;28;20173;-85
2023/04/15 06:09:27;;;;;;;1.80;1.47;;;7.00;97.30;;;;;;5002691;28;20426;-85
2023/04/15 06:11:53;;;;;;;3.60;1.33;;;7.00;97.30;;;;;;4992318;28;20183;-85
2023/04/15 06:14:19;;;;;;;2.30;2.00;;;7.10;97.30;;;;;;4992641;28;20440;-85
2023/04/15 06:16:44;;;;;;;2.33;2.13;;;7.10;97.30;;;;;;5000797;28;20267;-85
2023/04/15 06:19:11;;;;;;;1.60;1.50;;;7.10;97.30;;;;;;5016749;28;20780;-85
2023/04/15 06:21:37;;;;;;;2.13;1.97;;;7.10;97.30;;;;;;4998251;28;20208;-86
2023/04/15 06:24:02;;;;;;;4.93;2.20;;;7.10;97.30;;;;;;4996110;28;20813;-85
2023/04/15 06:26:28;;;;;;;2.80;2.30;;;7.10;97.30;;;;;;5007495;28;20542;-85
2023/04/15 06:28:54;;;;;;;4.93;3.20;;;7.10;97.30;;;;;;5010994;28;20343;-86
2023/04/15 06:31:20;;;;;;;2.07;1.70;;;7.10;97.30;;;;;;4992130;28;20177;-86
2023/04/15 06:33:45;;;;;;;1.40;1.30;;;7.10;97.30;;;;;;4999702;28;20432;-86
2023/04/15 06:36:11;;;;;;;3.23;3.07;;;7.10;97.30;;;;;;5010279;28;20204;-86
2023/04/15 06:38:36;;;;;;;8.23;3.03;;;7.10;97.30;;;;;;5009301;28;20188;-87
2023/04/15 06:41:03;;;;;;;5.00;2.83;;;7.20;97.30;;;;;;4988912;28;20189;-86
2023/04/15 06:43:28;;;;;;;1.40;1.30;;;7.20;97.30;;;;;;4995126;28;20696;-85
2023/04/15 06:45:54;;;;;;;3.30;2.90;;;7.20;97.30;;;;;;5011737;28;20400;-86
2023/04/15 06:48:19;;;;;;;2.50;1.27;;;7.20;97.30;;;;;;4995956;28;20741;-85
2023/04/15 06:50:45;;;;;;;2.90;1.30;;;7.20;97.30;;;;;;4994990;28;20173;-86
2023/04/15 06:53:10;;;;;;;4.73;2.10;;;7.20;97.30;;;;;;4994694;28;20576;-86
2023/04/15 06:55:36;;;;;;;3.23;2.17;;;7.20;97.30;;;;;;4994275;28;20189;-85
2023/04/15 06:58:01;;;;;;;8.60;2.97;;;7.30;97.30;;;;;;5011395;28;20594;-84
2023/04/15 07:00:27;;;;;;;4.40;2.63;;;7.30;97.30;;;;;;5003735;28;20169;-85
2023/04/15 07:02:54;;;;;;;3.00;2.80;;;7.30;97.30;;;;;;5007110;28;20225;-85
2023/04/15 07:05:20;;;;;;;3.13;2.93;;;7.30;97.30;;;;;;4994500;28;20183;-84
2023/04/15 07:07:45;;;;;;;2.47;2.27;;;7.30;97.30;;;;;;4991273;28;20436;-83
2023/04/15 07:10:11;;;;;;;1.53;1.50;;;7.30;97.30;;;;;;5012861;28;20412;-84
2023/04/15 07:12:40;;;;;;;1.67;1.43;;;7.30;97.30;;;;;;4996304;28;20185;-83
2023/04/15 07:15:09;;;;;;;1.67;1.57;;;7.40;97.30;;;;;;5012284;28;20181;-84
2023/04/15 07:17:51;;;;;;;1.10;1.00;;;7.40;97.30;;;;;;5000270;28;20492;-84
2023/04/15 07:20:19;;;;;;;1.87;1.70;;;7.40;97.30;;;;;;4994240;28;20440;-85
2023/04/15 07:22:53;;;;;;;2.83;2.63;;;7.40;97.30;;;;;;5001286;28;20549;-84
2023/04/15 07:25:22;;;;;;;4.27;3.43;;;7.50;97.30;;;;;;4995172;28;20447;-84
2023/04/15 07:27:52;;;;;;;1.37;1.27;;;7.50;97.30;;;;;;4996809;28;20460;-84
2023/04/15 07:30:20;;;;;;;5.23;2.57;;;7.50;97.30;;;;;;4995143;28;20412;-84
2023/04/15 07:32:52;;;;;;;1.30;1.20;;;7.50;97.30;;;;;;4995948;28;20432;-84
2023/04/15 07:35:22;;;;;;;4.87;1.93;;;7.50;97.30;;;;;;5000698;28;20412;-84
2023/04/15 07:37:51;;;;;;;2.90;2.30;;;7.50;97.30;;;;;;4998981;28;20420;-87
2023/04/15 07:40:18;;;;;;;6.07;4.53;;;7.60;97.30;;;;;;4996834;28;20663;-85
2023/04/15 07:42:48;;;;;;;2.13;1.97;;;7.60;97.30;;;;;;5018660;28;20529;-85
2023/04/15 07:45:18;;;;;;;1.80;1.70;;;7.60;97.30;;;;;;5000682;28;20983;-85
2023/04/15 07:47:51;;;;;;;6.80;3.70;;;7.70;97.30;;;;;;5003102;28;20473;-85
2023/04/15 07:50:22;;;;;;;1.57;1.43;;;7.70;97.30;;;;;;4998120;28;20995;-84
2023/04/15 07:52:48;;;;;;;2.80;2.60;;;7.70;97.30;;;;;;4996764;28;20419;-85
2023/04/15 07:55:21;;;;;;;4.57;2.37;;;7.70;97.30;;;;;;5003620;28;20415;-84
2023/04/15 07:57:52;;;;;;;2.90;2.33;;;7.70;97.30;;;;;;5010943;28;20513;-85
2023/04/15 08:00:20;;;;;;;2.27;2.07;;;7.80;97.30;;;;;;5007939;28;20473;-83
2023/04/15 08:02:51;;;;;;;3.80;3.13;;;7.80;97.30;;;;;;5008350;28;20581;-82
2023/04/15 08:05:20;;;;;;;1.60;1.50;;;7.80;97.30;;;;;;4998000;28;20424;-84
2023/04/15 08:07:52;;;;;;;1.33;1.23;;;7.80;97.30;;;;;;5002833;28;20469;-84
2023/04/15 08:10:21;;;;;;;3.43;3.23;;;7.80;97.30;;;;;;5002935;28;20526;-83
2023/04/15 08:12:53;;;;;;;2.80;2.30;;;7.90;97.30;;;;;;4990009;28;20427;-83
2023/04/15 08:15:22;;;;;;;1.70;1.63;;;7.90;97.30;;;;;;5015141;28;20494;-84
2023/04/15 08:17:50;;;;;;;4.40;3.33;;;7.90;97.30;;;;;;5003440;28;20420;-85
2023/04/15 08:20:18;;;;;;;3.40;2.43;;;7.90;97.30;;;;;;5014164;28;21059;-85
2023/04/15 08:22:46;;;;;;;3.83;3.63;;;8.00;97.30;;;;;;4993673;28;20847;-85
2023/04/15 08:25:12;;;;;;;4.80;3.13;;;8.00;97.30;;;;;;4995780;28;20434;-85
2023/04/15 08:27:39;;;;;;;5.50;2.73;;;8.00;97.30;;;;;;4999692;28;20412;-85
2023/04/15 08:30:08;;;;;;;4.10;2.43;;;8.00;97.30;;;;;;5011618;28;20181;-84
2023/04/15 08:32:34;;;;;;;3.30;2.67;;;8.00;97.30;;;;;;5000034;28;20864;-85
2023/04/15 08:35:00;;;;;;;3.47;2.60;;;8.00;97.30;;;;;;4995119;28;20517;-85
2023/04/15 08:37:28;;;;;;;4.90;3.87;;;8.10;97.30;;;;;;5004264;28;20664;-85
2023/04/15 08:39:53;;;;;;;4.47;1.90;;;8.10;97.30;;;;;;5020578;28;20439;-85
2023/04/15 08:42:28;;;;;;;9.60;5.13;;;8.10;97.30;;;;;;4995578;28;20514;-85
2023/04/15 08:44:55;;;;;;;6.50;2.90;;;8.20;97.30;;;;;;5013615;28;20197;-85
2023/04/15 08:47:23;;;;;;;2.60;2.40;;;8.20;97.30;;;;;;5014060;28;20408;-85
2023/04/15 08:49:53;;;;;;;3.10;2.27;;;8.20;97.30;;;;;;5006495;28;20505;-86
2023/04/15 08:52:19;;;;;;;6.33;4.10;;;8.20;97.30;;;;;;5010090;28;20763;-85
2023/04/15 08:54:46;;;;;;;4.73;3.00;;;8.20;97.30;;;;;;5000827;28;20953;-85
2023/04/15 08:57:13;;;;;;;9.83;2.80;;;8.30;97.30;;;;;;4998385;28;20438;-85
2023/04/15 08:59:40;;;;;;;6.07;2.43;;;8.30;97.30;;;;;;5011065;28;20436;-84
2023/04/15 09:02:06;;;;;;;3.57;2.60;;;8.30;97.30;;;;;;5007622;28;20464;-84
2023/04/15 09:04:32;;;;;;;3.70;3.20;;;8.30;97.30;;;;;;5006653;28;20534;-85
2023/04/15 09:06:57;;;;;;;5.37;3.10;;;8.30;97.30;;;;;;5002341;28;20419;-85
2023/04/15 09:09:30;;;;;;;4.43;3.10;;;8.40;97.30;;;;;;5021318;28;20506;-85
2023/04/15 09:11:58;;;;;;;2.30;2.10;;;8.40;97.30;;;;;;4994731;28;20749;-86
2023/04/15 09:14:24;;;;;;;6.60;3.90;;;8.50;97.30;;;;;;5007695;28;20455;-85
2023/04/15 09:16:59;;;;;;;5.50;3.00;;;8.60;97.30;;;;;;4995505;28;20419;-84
2023/04/15 09:19:25;;;;;;;3.17;2.93;;;8.60;97.30;;;;;;4997968;28;20239;-84
2023/04/15 09:21:53;;;;;;;3.37;3.17;;;8.70;97.30;;;;;;5012668;28;20455;-84
2023/04/15 09:24:21;;;;;;;9.97;5.27;;;8.70;97.30;;;;;;5011370;28;20197;-84
2023/04/15 09:26:47;;;;;;;2.90;2.60;;;8.70;97.30;;;;;;4997575;28;20619;-84
2023/04/15 09:29:12;;;;;;;7.13;4.20;;;8.70;97.30;;;;;;5001221;28;20420;-84
2023/04/15 09:31:41;;;;;;;2.87;2.50;;;8.80;97.30;;;;;;4996091;28;20555;-84
2023/04/15 09:34:10;;;;;;;9.73;3.43;;;8.80;97.30;;;;;;4994523;28;20197;-85
2023/04/15 09:36:46;;;;;;;6.67;4.67;;;8.80;97.30;;;;;;4997082;28;20431;-84
2023/04/15 09:39:11;;;;;;;7.67;4.93;;;8.90;97.30;;;;;;5022372;28;20412;-85
2023/04/15 09:41:39;;;;;;;8.80;5.20;;;8.90;97.30;;;;;;4995757;28;20559;-85
2023/04/15 09:44:31;;;;;;;2.60;2.40;;;8.90;97.30;;;;;;4992868;28;20433;-84
2023/04/15 09:47:01;;;;;;;6.07;4.40;;;8.90;97.30;;;;;;4995956;28;20428;-84
2023/04/15 09:49:29;;;;;;;5.00;3.43;;;9.00;97.30;;;;;;4995310;28;20482;-85
2023/04/15 09:52:00;;;;;;;4.50;3.33;;;9.00;97.30;;;;;;4999046;28;20424;-85
2023/04/15 09:54:35;;;;;;;5.87;5.57;;;9.10;97.30;;;;;;5010976;28;20440;-85
2023/04/15 09:57:05;;;;;;;8.03;4.70;;;9.10;97.30;;;;;;4999896;28;20424;-86
2023/04/15 09:59:30;;;;;;;5.60;3.77;;;9.10;97.30;;;;;;4998668;28;20548;-86
2023/04/15 10:01:59;;;;;;;8.00;3.90;;;9.20;97.30;;;;;;4994450;28;20630;-85
2023/04/15 10:04:28;;;;;;;8.30;6.63;;;9.20;97.30;;;;;;5000663;28;20233;-85
2023/04/15 10:06:54;;;;;;;7.80;4.67;;;9.20;97.30;;;;;;5004922;28;20451;-85
2023/04/15 10:09:20;;;;;;;10.30;6.87;;;9.20;97.30;;;;;;4999962;28;20426;-84
2023/04/15 10:11:48;;;;;;;9.03;4.80;;;9.30;97.30;;;;;;5004062;28;20412;-85
2023/04/15 10:14:15;;;;;;;8.63;4.60;;;9.40;97.30;;;;;;4995892;28;20189;-85
2023/04/15 10:16:42;;;;;;;11.73;5.80;;;9.40;97.30;;;;;;5009055;28;20784;-84
2023/04/15 10:19:09;;;;;;;10.03;7.37;;;9.50;97.30;;;;;;5010512;28;20425;-85
2023/04/15 10:21:36;;;;;;;11.27;5.33;;;9.50;97.30;;;;;;4989692;28;20964;-84
2023/04/15 10:24:03;;;;;;;6.60;4.13;;;9.50;97.30;;;;;;4998600;28;20848;-84
2023/04/15 10:26:29;;;;;;;8.33;6.00;;;9.50;97.30;;;;;;5008949;28;20447;-85
2023/04/15 10:28:56;;;;;;;5.20;4.53;;;9.50;97.30;;;;;;5014258;28;20400;-85
2023/04/15 10:31:22;;;;;;;6.07;4.27;;;9.50;97.30;;;;;;5003325;28;20962;-86
2023/04/15 10:33:48;;;;;;;6.70;5.10;;;9.50;97.30;;;;;;5008025;28;21088;-85
2023/04/15 10:36:14;;;;;;;14.80;6.93;;;9.50;97.30;;;;;;5009391;28;20485;-85
2023/04/15 10:38:44;;;;;;;8.90;5.43;;;9.50;97.30;;;;;;5004555;28;20959;-85
2023/04/15 10:41:28;;;;;;;11.93;4.10;;;9.60;97.30;;;;;;4997021;28;20425;-85
2023/04/15 10:44:02;;;;;;;18.03;7.03;;;9.60;97.30;;;;;;5008303;28;20459;-85
2023/04/15 10:46:42;;;;;;;6.70;4.60;;;9.60;97.30;;;;;;4996840;28;20419;-85
2023/04/15 10:49:23;;;;;;;8.23;5.50;;;9.60;97.30;;;;;;5014754;28;20419;-85
2023/04/15 10:51:57;;;;;;;12.03;6.40;;;9.70;97.30;;;;;;5008743;28;20463;-85
2023/04/15 10:54:25;;;;;;;9.60;5.70;;;9.70;97.30;;;;;;5002860;28;20831;-84
2023/04/15 10:57:05;;;;;;;5.90;3.80;;;9.70;97.30;;;;;;5014466;28;20696;-85
2023/04/15 10:59:34;;;;;;;6.77;4.40;;;9.70;97.30;;;;;;4998053;28;20809;-84
2023/04/15 11:02:05;;;;;;;3.10;2.90;;;9.70;97.30;;;;;;5005022;28;20542;-85
2023/04/15 11:04:59;;;;;;;8.43;3.60;;;9.80;97.30;;;;;;5016549;28;20468;-85
2023/04/15 11:07:49;;;;;;;9.13;4.57;;;9.80;97.30;;;;;;5010151;28;21007;-85
2023/04/15 11:10:19;;;;;;;8.33;4.80;;;9.80;97.30;;;;;;5000679;28;20413;-84
2023/04/15 11:12:46;;;;;;;5.27;4.67;;;9.90;97.30;;;;;;4999349;28;20423;-85
2023/04/15 11:15:30;;;;;;;13.00;7.07;;;9.90;97.30;;;;;;5001496;28;20423;-85
2023/04/15 11:17:57;;;;;;;8.27;4.90;;;9.90;97.30;;;;;;5004906;28;20420;-85
2023/04/15 11:20:23;;;;;;;3.67;3.37;;;10.00;97.30;;;;;;4999784;28;20955;-85
2023/04/15 11:22:51;;;;;;;3.97;3.73;;;10.00;97.30;;;;;;4997579;28;20487;-85
2023/04/15 11:25:27;;;;;;;3.10;2.90;;;9.90;97.30;;;;;;5002398;28;21111;-85
2023/04/15 11:27:54;;;;;;;2.00;1.90;;;9.90;97.30;;;;;;5003407;28;20807;-86
2023/04/15 11:30:27;;;;;;;5.23;4.87;;;9.90;97.30;;;;;;5007645;28;20460;-85
2023/04/15 11:32:57;;;;;;;4.60;4.30;;;9.90;97.30;;;;;;5025680;28;20420;-87
2023/04/15 11:35:23;;;;;;;4.13;3.80;;;9.90;97.30;;;;;;5000139;28;20440;-84
2023/04/15 11:37:49;;;;;;;3.23;3.03;;;9.90;97.30;;;;;;5006655;28;20904;-84
2023/04/15 11:40:16;;;;;;;2.30;2.10;;;9.90;97.30;;;;;;4981195;28;20182;-85
2023/04/15 11:42:43;;;;;;;3.67;2.90;;;9.90;97.30;;;;;;5022592;28;20458;-85
2023/04/15 11:45:10;;;;;;;3.17;2.90;;;9.90;97.30;;;;;;5019615;28;20483;-85
2023/04/15 11:47:37;;;;;;;8.70;4.07;;;9.90;97.30;;;;;;5011022;28;20420;-85
2023/04/15 11:50:20;;;;;;;4.90;4.17;;;9.90;97.30;;;;;;4996172;28;20486;-85
2023/04/15 11:53:00;;;;;;;2.90;1.97;;;10.00;97.30;;;;;;4992422;28;20420;-85
2023/04/15 11:55:26;;;;;;;3.47;2.90;;;10.00;97.30;;;;;;4992252;28;20416;-85
2023/04/15 11:58:15;;;;;;;5.17;4.30;;;10.00;97.30;;;;;;5011082;28;20419;-85
2023/04/15 12:00:46;;;;;;;2.43;2.20;;;10.00;97.30;;;;;;4997556;28;20908;-84
2023/04/15 12:03:18;;;;;;;4.83;4.37;;;10.00;97.30;;;;;;4991822;28;20479;-84
2023/04/15 12:06:11;;;;;;;3.03;2.80;;;10.00;97.30;;;;;;4987425;28;20420;-84
2023/04/15 12:09:02;;;;;;;6.50;2.60;;;10.00;97.30;;;;;;4994702;28;20677;-85
2023/04/15 12:11:30;;;;;;;4.20;2.90;;;10.00;97.30;;;;;;5009321;28;20416;-85
2023/04/15 12:13:58;;;;;;;6.27;4.00;;;10.00;97.30;;;;;;5011162;28;20439;-84
2023/04/15 12:16:24;;;;;;;4.47;2.90;;;10.00;97.30;;;;;;5005818;28;20427;-86
2023/04/15 12:18:57;;;;;;;2.27;1.80;;;10.00;97.30;;;;;;5003116;28;20495;-86
2023/04/15 12:21:24;;;;;;;4.00;2.50;;;10.00;97.30;;;;;;5003279;28;20926;-84
2023/04/15 12:23:55;;;;;;;5.20;2.87;;;10.00;97.30;;;;;;5001406;28;20454;-85
2023/04/15 12:26:45;;;;;;;3.73;2.23;;;10.00;97.30;;;;;;5004187;28;20418;-85
2023/04/15 12:29:12;;;;;;;2.80;2.37;;;10.10;97.30;;;;;;5000386;28;20455;-85
2023/04/15 12:32:19;;;;;;;1.40;1.30;;;10.10;97.30;;;;;;5012902;28;20932;-85
2023/04/15 12:34:53;;;;;;;4.00;2.10;;;10.20;97.30;;;;;;4900023;29;20456;-85
2023/04/15 12:37:18;;;;;;;2.20;2.03;;;10.20;97.30;;;;;;4903369;29;20468;-86
2023/04/15 12:39:47;;;;;;;1.90;1.80;;;10.30;97.30;;;;;;4966910;28;20456;-85
2023/04/15 12:42:14;;;;;;;2.73;2.53;;;10.30;97.30;;;;;;4996458;28;20583;-87
2023/04/15 12:44:40;;;;;;;4.97;3.50;;;10.40;97.30;;;;;;5007188;28;21149;-85
2023/04/15 12:47:07;;;;;;;6.23;3.63;;;10.40;97.30;;;;;;5013009;28;20452;-85
2023/04/15 12:49:33;;;;;;;2.40;2.23;;;10.50;97.30;;;;;;5018399;28;20173;-85
2023/04/15 12:52:00;;;;;;;2.77;2.50;;;10.50;97.30;;;;;;5012896;28;20447;-85
2023/04/15 12:54:26;;;;;;;2.70;2.30;;;10.50;97.30;;;;;;4994930;28;20863;-85
2023/04/15 12:56:53;;;;;;;2.00;1.93;;;10.50;97.30;;;;;;4998782;28;20420;-85
2023/04/15 12:59:19;;;;;;;2.00;1.80;;;10.50;97.30;;;;;;5001248;28;20423;-85
2023/04/15 13:01:45;;;;;;;3.57;3.37;;;10.50;97.30;;;;;;5000358;28;20464;-86
2023/04/15 13:04:10;;;;;;;1.87;1.77;;;10.50;97.30;;;;;;4999089;28;20225;-85